Time;durP1;ratioP1;P1;durP2;ratioP2;P2;SDS_P1;SDS_P2;PMS_P1;PMS_P2;Temp;Humidity;BMP_temperature;BMP_pressure;BME280_temperature;BME280_humidity;BME280_pressure;Samples;Min_cycle;Max_cycle;Signal;HPM_P1;HPM_P2
2023/09/13 00:01:10;;;;;;;;;20.50;18.00;;;;;20.33;76.54;100995.59;5074553;28;45506;-71
2023/09/13 00:03:35;;;;;;;;;21.50;18.75;;;;;20.30;76.05;100991.31;5071145;27;57855;-71
2023/09/13 00:06:01;;;;;;;;;17.75;16.25;;;;;20.28;76.39;100985.25;5073618;27;45413;-71
2023/09/13 00:08:26;;;;;;;;;20.75;17.25;;;;;20.32;76.17;100988.56;5070676;27;74705;-71
2023/09/13 00:10:51;;;;;;;;;21.00;17.50;;;;;20.30;76.64;100993.13;5079092;27;69783;-71
2023/09/13 00:13:17;;;;;;;;;16.00;13.50;;;;;20.29;76.29;100994.94;5070986;27;63247;-71
2023/09/13 00:15:43;;;;;;;;;16.75;16.00;;;;;20.29;76.55;100986.97;5074982;27;67958;-72
2023/09/13 00:18:09;;;;;;;;;20.50;17.00;;;;;20.27;76.44;100985.34;5075397;28;46483;-72
2023/09/13 00:20:35;;;;;;;;;17.50;15.25;;;;;20.26;76.40;100988.97;5078927;27;70840;-71
2023/09/13 00:23:00;;;;;;;;;19.75;15.25;;;;;20.23;76.58;100987.34;5074223;28;45332;-71
2023/09/13 00:25:25;;;;;;;;;20.25;17.75;;;;;20.21;76.99;100991.06;5065717;27;73056;-71
2023/09/13 00:27:51;;;;;;;;;16.75;15.00;;;;;20.21;76.80;100986.59;5071910;27;62986;-71
2023/09/13 00:30:16;;;;;;;;;20.25;14.50;;;;;20.18;76.72;100996.56;5078011;28;71501;-71
2023/09/13 00:32:41;;;;;;;;;15.50;13.00;;;;;20.17;76.67;100990.41;5072986;28;45485;-73
2023/09/13 00:35:07;;;;;;;;;20.50;15.75;;;;;20.13;76.75;100996.84;5066802;28;62010;-71
2023/09/13 00:37:32;;;;;;;;;15.75;13.75;;;;;20.10;76.81;100989.91;5073867;27;45439;-71
2023/09/13 00:39:58;;;;;;;;;17.50;14.75;;;;;20.10;76.47;100989.09;5067912;28;55211;-72
2023/09/13 00:42:23;;;;;;;;;22.25;15.25;;;;;20.05;76.76;100986.69;5062726;28;45339;-71
2023/09/13 00:44:48;;;;;;;;;14.00;13.00;;;;;20.03;76.85;100993.06;5070281;28;45663;-70
2023/09/13 00:47:16;;;;;;;;;15.75;13.00;;;;;19.98;76.98;100988.03;5071486;28;47188;-72
2023/09/13 00:49:41;;;;;;;;;17.50;14.25;;;;;19.96;76.66;100995.25;5072990;28;45698;-71
2023/09/13 00:52:07;;;;;;;;;18.25;15.25;;;;;19.88;76.88;100998.41;5062155;27;45248;-72
2023/09/13 00:54:32;;;;;;;;;18.25;14.75;;;;;19.85;77.79;101003.88;5063706;27;71907;-71
2023/09/13 00:56:58;;;;;;;;;14.75;13.25;;;;;19.84;77.37;101007.47;5065333;27;71256;-71
2023/09/13 00:59:24;;;;;;;;;20.25;15.00;;;;;19.81;77.86;101009.47;5076439;27;45241;-71
2023/09/13 01:01:49;;;;;;;;;18.75;15.00;;;;;19.80;77.69;101005.97;5076756;27;45257;-71
2023/09/13 01:04:15;;;;;;;;;18.50;16.00;;;;;19.80;77.81;101005.97;5073499;27;45404;-71
2023/09/13 01:06:41;;;;;;;;;18.50;13.75;;;;;19.81;77.65;101009.47;5053792;28;73086;-71
2023/09/13 01:09:07;;;;;;;;;17.50;13.25;;;;;19.81;78.10;101004.16;5073834;27;45415;-71
2023/09/13 01:11:32;;;;;;;;;14.50;13.00;;;;;19.82;78.11;100997.91;5072924;28;45323;-71
2023/09/13 01:13:58;;;;;;;;;16.25;14.25;;;;;19.79;77.90;100998.94;5069832;27;66326;-71
2023/09/13 01:16:48;;;;;;;;;14.75;13.00;;;;;19.80;77.37;100997.16;5074227;28;45419;-72
2023/09/13 01:19:32;;;;;;;;;13.75;12.00;;;;;19.81;77.41;101002.34;5078558;27;45731;-72
2023/09/13 01:22:07;;;;;;;;;15.00;13.00;;;;;19.82;78.06;101006.72;5059458;28;45470;-72
2023/09/13 01:24:41;;;;;;;;;16.75;14.50;;;;;19.82;77.83;101001.41;5076991;27;45702;-72
2023/09/13 01:27:15;;;;;;;;;16.25;15.00;;;;;19.81;77.58;100991.72;5069336;27;46321;-72
2023/09/13 01:29:42;;;;;;;;;20.00;16.75;;;;;19.80;78.16;101002.47;5073887;28;46587;-71
2023/09/13 01:32:07;;;;;;;;;20.25;16.25;;;;;19.80;77.70;100999.81;5072726;27;45256;-70
2023/09/13 01:34:33;;;;;;;;;21.75;18.25;;;;;19.79;77.42;101004.25;5075131;28;67523;-71
2023/09/13 01:36:58;;;;;;;;;21.00;17.75;;;;;19.77;77.67;101005.31;5071615;28;64942;-70
2023/09/13 01:39:24;;;;;;;;;18.50;15.75;;;;;19.74;77.76;101009.00;5073343;28;70362;-71
2023/09/13 01:41:54;;;;;;;;;18.75;15.25;;;;;19.73;77.57;101017.88;5072998;27;68841;-71
2023/09/13 01:44:20;;;;;;;;;17.75;14.00;;;;;19.72;78.08;101014.38;5065294;28;45419;-70
2023/09/13 01:46:46;;;;;;;;;17.50;16.50;;;;;19.76;77.97;101016.88;5072219;27;45602;-71
2023/09/13 01:49:13;;;;;;;;;17.50;15.00;;;;;19.75;78.14;101016.03;5073976;27;45338;-71
2023/09/13 01:51:39;;;;;;;;;26.75;16.75;;;;;19.78;77.67;101015.84;5072661;28;45324;-71
2023/09/13 01:54:05;;;;;;;;;18.50;16.75;;;;;19.77;78.20;101022.09;5068075;27;45399;-71
2023/09/13 01:56:30;;;;;;;;;26.75;19.00;;;;;19.79;78.16;101022.84;5070914;28;45589;-71
2023/09/13 01:58:55;;;;;;;;;19.00;17.00;;;;;19.82;78.57;101032.44;5072436;28;66031;-70
2023/09/13 02:01:21;;;;;;;;;20.00;16.25;;;;;19.84;78.45;101035.84;5075785;28;45286;-70
2023/09/13 02:03:47;;;;;;;;;19.75;18.00;;;;;19.87;78.37;101039.16;5071911;28;45427;-72
2023/09/13 02:06:12;;;;;;;;;23.25;19.75;;;;;19.85;78.23;101033.09;5073388;27;68678;-72
2023/09/13 02:08:38;;;;;;;;;23.50;19.25;;;;;19.90;78.13;101038.13;5079284;27;63078;-72
2023/09/13 02:11:06;;;;;;;;;19.00;17.50;;;;;19.92;78.33;101038.91;5076795;27;45386;-72
2023/09/13 02:13:31;;;;;;;;;20.75;17.75;;;;;19.94;78.45;101041.44;5074678;27;45394;-72
2023/09/13 02:15:57;;;;;;;;;20.25;15.75;;;;;19.96;78.02;101044.88;5078422;27;45411;-71
2023/09/13 02:18:22;;;;;;;;;21.50;20.25;;;;;19.94;78.01;101044.97;5077607;28;67921;-70
2023/09/13 02:20:47;;;;;;;;;19.50;17.75;;;;;19.89;78.19;101047.91;5076973;27;45409;-70
2023/09/13 02:23:13;;;;;;;;;19.50;17.50;;;;;19.87;78.36;101049.78;5084257;28;54535;-71
2023/09/13 02:25:40;;;;;;;;;23.75;17.75;;;;;19.87;78.12;101047.13;5078989;27;62554;-71
2023/09/13 02:28:05;;;;;;;;;22.50;14.50;;;;;19.88;78.48;101053.28;5077599;28;45369;-71
2023/09/13 02:30:33;;;;;;;;;20.25;13.75;;;;;19.86;78.21;101057.84;5084449;27;45345;-71
2023/09/13 02:32:58;;;;;;;;;15.50;12.00;;;;;19.83;77.86;101058.91;5073332;27;45491;-71
2023/09/13 02:35:24;;;;;;;;;17.75;15.25;;;;;19.77;77.79;101059.25;5076480;27;62715;-72
2023/09/13 02:37:49;;;;;;;;;19.25;16.75;;;;;19.75;77.30;101066.47;5079963;27;60070;-70
2023/09/13 02:40:14;;;;;;;;;17.50;13.00;;;;;19.71;77.48;101057.81;5083039;27;45457;-70
2023/09/13 02:42:40;;;;;;;;;16.75;13.75;;;;;19.68;77.28;101067.75;5081634;27;64025;-71
2023/09/13 02:45:06;;;;;;;;;15.50;10.25;;;;;19.61;77.77;101061.94;5084371;27;46014;-70
2023/09/13 02:47:31;;;;;;;;;19.75;12.75;;;;;19.58;77.59;101059.47;5083786;27;45363;-71
2023/09/13 02:49:57;;;;;;;;;15.00;13.50;;;;;19.54;77.78;101058.81;5078251;27;45268;-70
2023/09/13 02:52:32;;;;;;;;;16.25;13.75;;;;;19.51;77.91;101063.44;5081436;27;45515;-70
2023/09/13 02:54:58;;;;;;;;;12.00;11.50;;;;;19.47;77.70;101061.91;5081404;27;46369;-71
2023/09/13 02:57:24;;;;;;;;;13.25;9.50;;;;;19.47;77.46;101068.06;5077408;27;45192;-71
2023/09/13 02:59:49;;;;;;;;;4.50;3.25;;;;;19.47;77.64;101072.53;5076639;27;45260;-70
2023/09/13 03:02:16;;;;;;;;;14.00;12.50;;;;;19.47;77.58;101070.72;5080099;27;45434;-71
2023/09/13 03:04:41;;;;;;;;;14.50;10.25;;;;;19.42;77.85;101074.59;5084683;27;65524;-70
2023/09/13 03:07:08;;;;;;;;;13.75;13.25;;;;;19.43;77.47;101071.88;5074059;28;45533;-71
2023/09/13 03:09:34;;;;;;;;;13.25;11.00;;;;;19.42;77.89;101072.81;5078418;28;45486;-71
2023/09/13 03:11:59;;;;;;;;;17.00;13.00;;;;;19.43;77.81;101073.69;5073440;27;45366;-71
2023/09/13 03:14:25;;;;;;;;;16.25;11.75;;;;;19.48;77.71;101072.47;5080029;27;73982;-71
2023/09/13 03:16:50;;;;;;;;;17.25;12.50;;;;;19.49;77.54;101066.19;5079814;28;45518;-70
2023/09/13 03:19:15;;;;;;;;;16.00;12.75;;;;;19.52;77.14;101073.13;5077505;27;54852;-71
2023/09/13 03:21:44;;;;;;;;;17.25;11.00;;;;;19.54;77.29;101073.88;5090616;27;64646;-71
2023/09/13 03:24:10;;;;;;;;;11.75;11.25;;;;;19.53;76.88;101074.84;5075329;27;46369;-71
2023/09/13 03:26:35;;;;;;;;;13.75;11.00;;;;;19.52;77.13;101078.44;5070132;27;45248;-70
2023/09/13 03:29:00;;;;;;;;;13.50;11.00;;;;;19.48;77.08;101064.50;5075171;27;45263;-70
2023/09/13 03:31:26;;;;;;;;;14.00;10.00;;;;;19.47;77.17;101070.72;5070350;28;48459;-70
2023/09/13 03:33:53;;;;;;;;;11.00;10.75;;;;;19.48;77.22;101075.09;5073395;27;45410;-70
2023/09/13 03:36:19;;;;;;;;;12.75;11.00;;;;;19.47;76.95;101069.88;5080912;27;45754;-70
2023/09/13 03:38:46;;;;;;;;;16.25;13.25;;;;;19.45;77.00;101071.78;5081404;27;45501;-70
2023/09/13 03:41:13;;;;;;;;;12.00;12.00;;;;;19.41;76.76;101068.44;5071685;28;45374;-71
2023/09/13 03:43:38;;;;;;;;;15.50;12.75;;;;;19.41;77.23;101068.44;5070775;28;46251;-71
2023/09/13 03:46:05;;;;;;;;;16.25;11.50;;;;;19.43;76.84;101066.56;5072709;27;45486;-70
2023/09/13 03:48:31;;;;;;;;;18.75;16.00;;;;;19.45;76.95;101069.13;5072501;27;45414;-70
2023/09/13 03:50:57;;;;;;;;;16.25;15.25;;;;;19.42;77.40;101054.22;5071357;27;45544;-71
2023/09/13 03:53:23;;;;;;;;;14.25;13.50;;;;;19.50;77.21;101062.59;5070080;27;46329;-70
2023/09/13 03:55:49;;;;;;;;;18.00;16.25;;;;;19.53;77.13;101056.28;5077621;27;45292;-71
2023/09/13 03:58:14;;;;;;;;;13.25;9.75;;;;;19.50;76.98;101062.59;5079428;27;45373;-72
2023/09/13 04:00:40;;;;;;;;;15.75;12.00;;;;;19.50;76.97;101067.91;5069112;28;51760;-69
2023/09/13 04:03:05;;;;;;;;;12.50;11.00;;;;;19.48;77.28;101066.31;5060979;28;57224;-71
2023/09/13 04:05:30;;;;;;;;;15.25;13.50;;;;;19.47;76.85;101062.78;5054250;28;66109;-71
2023/09/13 04:07:57;;;;;;;;;12.50;11.25;;;;;19.45;76.97;101069.97;5068863;27;61199;-71
2023/09/13 04:10:22;;;;;;;;;13.50;12.50;;;;;19.43;77.35;101074.53;5076842;27;45541;-71
2023/09/13 04:12:48;;;;;;;;;12.25;11.50;;;;;19.41;77.11;101073.75;5076843;28;45226;-71
2023/09/13 04:15:14;;;;;;;;;17.00;11.00;;;;;19.40;77.39;101072.03;5078677;28;45596;-71
2023/09/13 04:17:39;;;;;;;;;8.75;8.25;;;;;19.42;77.40;101070.16;5074980;28;45992;-71
2023/09/13 04:20:06;;;;;;;;;12.50;11.75;;;;;19.46;77.37;101073.47;5064281;27;73281;-71
2023/09/13 04:22:31;;;;;;;;;13.50;10.50;;;;;19.46;77.00;101074.34;5078880;27;46202;-71
2023/09/13 04:24:56;;;;;;;;;15.00;13.25;;;;;19.45;77.32;101066.47;5072275;27;63510;-71
2023/09/13 04:27:23;;;;;;;;;15.75;10.00;;;;;19.44;77.73;101062.97;5076426;27;68276;-71
2023/09/13 04:29:48;;;;;;;;;11.00;9.00;;;;;19.45;77.45;101059.34;5075276;27;45507;-71
2023/09/13 04:32:14;;;;;;;;;15.50;12.75;;;;;19.46;77.04;101066.38;5068187;27;45360;-70
2023/09/13 04:34:39;;;;;;;;;12.75;12.25;;;;;19.45;77.31;101066.47;5071745;28;45343;-71
2023/09/13 04:37:05;;;;;;;;;14.25;12.50;;;;;19.41;77.29;101065.81;5073764;27;45334;-71
2023/09/13 04:39:31;;;;;;;;;14.25;10.50;;;;;19.38;77.53;101065.97;5080168;27;45261;-71
2023/09/13 04:41:59;;;;;;;;;12.00;11.50;;;;;19.38;77.34;101068.63;5057384;28;46715;-71
2023/09/13 04:44:25;;;;;;;;;9.25;9.25;;;;;19.35;77.46;101071.44;5085795;27;45505;-71
2023/09/13 04:46:54;;;;;;;;;12.00;12.00;;;;;19.35;77.60;101077.63;5071448;28;45528;-71
2023/09/13 04:49:20;;;;;;;;;16.50;11.00;;;;;19.37;77.31;101080.22;5074399;27;45433;-69
2023/09/13 04:51:45;;;;;;;;;13.75;11.75;;;;;19.36;77.00;101083.78;5075588;27;48452;-70
2023/09/13 04:54:10;;;;;;;;;16.00;12.00;;;;;19.31;77.75;101076.09;5064205;27;45598;-71
2023/09/13 04:56:36;;;;;;;;;15.25;11.75;;;;;19.31;77.44;101086.69;5076678;27;45335;-71
2023/09/13 04:59:01;;;;;;;;;13.25;11.25;;;;;19.30;77.67;101084.13;5079398;27;45331;-70
2023/09/13 05:01:27;;;;;;;;;14.00;10.25;;;;;19.32;77.72;101082.28;5073435;28;59233;-70
2023/09/13 05:03:52;;;;;;;;;12.00;11.25;;;;;19.32;77.37;101082.28;5071516;28;45354;-71
2023/09/13 05:06:18;;;;;;;;;13.75;11.25;;;;;19.31;77.47;101081.38;5067418;28;45225;-71
2023/09/13 05:08:44;;;;;;;;;16.50;12.25;;;;;19.33;77.56;101081.31;5075882;27;45528;-71
2023/09/13 05:11:09;;;;;;;;;12.50;12.00;;;;;19.34;77.32;101085.69;5076185;27;46170;-70
2023/09/13 05:13:38;;;;;;;;;11.25;10.50;;;;;19.32;77.08;101087.56;5066863;27;45488;-70
2023/09/13 05:16:03;;;;;;;;;13.00;10.75;;;;;19.31;77.54;101086.69;5075402;28;45381;-71
2023/09/13 05:18:28;;;;;;;;;16.25;11.50;;;;;19.31;77.20;101094.66;5074555;28;52605;-70
2023/09/13 05:20:54;;;;;;;;;12.50;11.25;;;;;19.32;77.31;101093.72;5066050;28;75702;-71
2023/09/13 05:23:21;;;;;;;;;10.50;10.00;;;;;19.32;76.92;101101.69;5059367;28;45450;-72
2023/09/13 05:25:48;;;;;;;;;11.50;8.50;;;;;19.35;77.48;101113.91;5089533;27;46322;-70
2023/09/13 05:28:15;;;;;;;;;9.50;9.50;;;;;19.35;76.96;101105.94;5072775;28;46741;-71
2023/09/13 05:30:42;;;;;;;;;17.25;13.00;;;;;19.38;76.64;101102.28;5071471;28;45575;-70
2023/09/13 05:33:07;;;;;;;;;11.75;8.25;;;;;19.40;76.86;101111.84;5078094;27;45341;-70
2023/09/13 05:35:33;;;;;;;;;14.75;9.00;;;;;19.46;76.69;101113.28;5069897;27;45447;-70
2023/09/13 05:37:59;;;;;;;;;13.50;10.00;;;;;19.48;76.74;101124.69;5071057;28;45444;-69
2023/09/13 05:40:27;;;;;;;;;11.50;9.50;;;;;19.48;76.22;101128.19;5066802;28;45418;-68
2023/09/13 05:42:53;;;;;;;;;8.00;8.00;;;;;19.48;75.92;101130.84;5069137;27;46700;-71
2023/09/13 05:45:18;;;;;;;;;12.00;10.00;;;;;19.48;76.12;101135.31;5074788;27;69692;-69
2023/09/13 05:47:44;;;;;;;;;8.75;7.50;;;;;19.48;75.98;101124.69;5072276;27;45406;-69
2023/09/13 05:50:09;;;;;;;;;11.25;10.25;;;;;19.46;76.01;101134.53;5073953;28;47145;-70
2023/09/13 05:52:37;;;;;;;;;12.00;10.25;;;;;19.45;76.27;101135.47;5067988;28;45596;-69
2023/09/13 05:55:03;;;;;;;;;12.00;8.75;;;;;19.45;76.13;101138.13;5072606;28;45518;-72
2023/09/13 05:57:28;;;;;;;;;13.50;11.00;;;;;19.42;76.27;101144.47;5069235;27;45446;-74
2023/09/13 05:59:53;;;;;;;;;9.25;8.00;;;;;19.37;75.93;101143.03;5069063;28;45318;-73
2023/09/13 06:02:19;;;;;;;;;10.75;9.25;;;;;19.35;76.04;101148.41;5087442;27;45447;-73
2023/09/13 06:04:44;;;;;;;;;10.25;8.75;;;;;19.31;75.98;101153.03;5070846;28;45412;-73
2023/09/13 06:07:10;;;;;;;;;8.75;8.50;;;;;19.27;76.00;101154.16;5064861;27;62292;-72
2023/09/13 06:09:35;;;;;;;;;12.00;8.50;;;;;19.29;76.39;101164.69;5066725;28;47471;-67
2023/09/13 06:12:01;;;;;;;;;16.50;12.25;;;;;19.23;76.59;101154.41;5072122;28;45620;-65
2023/09/13 06:14:27;;;;;;;;;11.75;8.75;;;;;19.22;76.49;101158.88;5074385;28;45525;-69
2023/09/13 06:16:52;;;;;;;;;12.25;9.25;;;;;19.23;76.63;101157.94;5061349;28;45175;-66
2023/09/13 06:19:18;;;;;;;;;14.00;12.00;;;;;19.19;76.45;101159.03;5069332;28;56660;-67
2023/09/13 06:21:43;;;;;;;;;12.75;10.75;;;;;19.24;77.07;101164.94;5066956;28;64891;-67
2023/09/13 06:24:09;;;;;;;;;11.50;10.50;;;;;19.28;76.61;101155.03;5069982;28;45448;-67
2023/09/13 06:26:34;;;;;;;;;12.75;8.75;;;;;19.31;76.90;101163.66;5051337;28;74252;-67
2023/09/13 06:29:00;;;;;;;;;12.50;9.75;;;;;19.26;77.11;101156.91;5088011;27;47047;-68
2023/09/13 06:31:25;;;;;;;;;11.25;10.25;;;;;19.34;76.78;101160.84;5069611;28;45408;-67
2023/09/13 06:33:50;;;;;;;;;10.25;9.75;;;;;19.34;76.74;101162.66;5062955;28;46098;-67
2023/09/13 06:36:16;;;;;;;;;12.25;10.25;;;;;19.37;76.83;101164.25;5064584;28;71626;-67
2023/09/13 06:38:41;;;;;;;;;12.75;9.50;;;;;19.35;76.22;101175.84;5072029;28;64875;-66
2023/09/13 06:41:08;;;;;;;;;14.50;11.00;;;;;19.31;76.21;101168.13;5074734;28;69479;-67
2023/09/13 06:43:33;;;;;;;;;14.00;7.00;;;;;19.38;76.68;101180.09;5069926;28;45476;-66
2023/09/13 06:45:58;;;;;;;;;13.50;12.00;;;;;19.41;76.02;101187.03;5074267;28;51548;-66
2023/09/13 06:48:24;;;;;;;;;11.25;10.00;;;;;19.35;76.39;101173.19;5070394;28;46273;-66
2023/09/13 06:50:49;;;;;;;;;11.25;10.75;;;;;19.38;76.17;101177.44;5074252;28;45421;-65
2023/09/13 06:53:14;;;;;;;;;11.75;11.25;;;;;19.41;76.41;101179.94;5070056;28;45529;-66
2023/09/13 06:55:40;;;;;;;;;13.75;12.75;;;;;19.43;76.62;101178.03;5073137;28;62721;-66
2023/09/13 06:58:07;;;;;;;;;13.75;12.50;;;;;19.40;76.38;101174.69;5087215;27;46117;-66
2023/09/13 07:00:32;;;;;;;;;18.00;14.25;;;;;19.39;76.61;101179.16;5075055;28;45453;-65
2023/09/13 07:02:58;;;;;;;;;20.00;14.25;;;;;19.42;76.70;101184.28;5070371;28;45253;-66
2023/09/13 07:05:23;;;;;;;;;13.75;10.75;;;;;19.41;76.69;101187.91;5064805;28;63841;-65
2023/09/13 07:07:48;;;;;;;;;11.25;9.50;;;;;19.41;76.68;101179.94;5075253;28;46029;-66
2023/09/13 07:10:14;;;;;;;;;12.25;11.25;;;;;19.48;76.46;101191.06;5076684;28;60681;-66
2023/09/13 07:12:39;;;;;;;;;15.25;11.50;;;;;19.52;76.40;101190.78;5076749;28;45297;-67
2023/09/13 07:15:07;;;;;;;;;14.75;14.00;;;;;19.54;76.46;101194.19;5070713;28;71663;-66
2023/09/13 07:17:33;;;;;;;;;16.50;14.00;;;;;19.55;76.32;101189.75;5069998;28;46014;-66
2023/09/13 07:19:58;;;;;;;;;21.00;14.00;;;;;19.57;75.93;101190.53;5067205;27;45307;-67
2023/09/13 07:22:23;;;;;;;;;16.75;14.50;;;;;19.66;75.98;101184.69;5075486;28;47163;-69
2023/09/13 07:24:49;;;;;;;;;18.00;14.50;;;;;19.76;76.12;101185.03;5079464;28;45739;-71
2023/09/13 07:27:14;;;;;;;;;14.25;12.75;;;;;19.87;76.00;101193.22;5077629;28;46210;-73
2023/09/13 07:29:40;;;;;;;;;18.75;14.75;;;;;19.93;75.23;101189.34;5076950;28;63114;-68
2023/09/13 07:32:05;;;;;;;;;22.50;15.00;;;;;20.04;74.91;101194.91;5073631;28;54858;-68
2023/09/13 07:34:31;;;;;;;;;14.50;12.25;;;;;20.09;74.76;101208.75;5067292;28;45643;-68
2023/09/13 07:36:56;;;;;;;;;21.75;16.50;;;;;20.15;74.34;101211.97;5053586;28;59517;-68
2023/09/13 07:39:21;;;;;;;;;23.00;17.50;;;;;20.15;73.90;101211.97;5071987;27;69244;-68
2023/09/13 07:41:47;;;;;;;;;19.50;17.00;;;;;20.18;73.84;101217.13;5070398;28;56589;-68
2023/09/13 07:44:12;;;;;;;;;46.00;35.50;;;;;20.22;73.44;101216.84;5073751;28;72746;-68
2023/09/13 07:46:37;;;;;;;;;35.00;29.00;;;;;20.25;73.57;101214.00;5054423;28;60765;-67
2023/09/13 07:49:04;;;;;;;;;17.25;14.00;;;;;20.31;73.45;101218.09;5072047;28;72514;-69
2023/09/13 07:51:30;;;;;;;;;21.50;16.50;;;;;20.35;73.28;101229.41;5068409;28;45396;-67
2023/09/13 07:54:04;;;;;;;;;21.75;16.00;;;;;20.37;73.34;101233.66;5074800;28;45506;-67
2023/09/13 07:56:31;;;;;;;;;16.00;14.00;;;;;20.38;72.81;101226.53;5074130;28;46562;-68
2023/09/13 07:58:56;;;;;;;;;16.00;16.00;;;;;20.34;72.95;101235.66;5073761;27;46363;-70
2023/09/13 08:01:22;;;;;;;;;19.75;16.50;;;;;20.29;72.84;101239.47;5073233;27;56033;-71
2023/09/13 08:03:47;;;;;;;;;18.25;15.75;;;;;20.25;72.42;101243.22;5070809;27;72947;-70
2023/09/13 08:06:12;;;;;;;;;19.75;15.50;;;;;20.20;72.18;101245.34;5064350;27;54721;-70
2023/09/13 08:08:38;;;;;;;;;16.50;14.00;;;;;20.17;72.26;101249.94;5069604;28;73430;-70
2023/09/13 08:11:03;;;;;;;;;17.25;13.00;;;;;20.14;72.58;101252.81;5065916;27;54734;-67
2023/09/13 08:13:29;;;;;;;;;21.25;16.50;;;;;20.08;72.46;101249.56;5067682;28;67895;-70
2023/09/13 08:15:54;;;;;;;;;15.75;14.50;;;;;20.12;72.32;101254.69;5072794;28;45802;-69
2023/09/13 08:18:22;;;;;;;;;15.50;12.50;;;;;20.11;72.63;101259.13;5067930;28;45461;-67
2023/09/13 08:20:47;;;;;;;;;18.25;14.25;;;;;20.14;72.32;101258.97;5075092;27;45829;-69
2023/09/13 08:23:13;;;;;;;;;14.50;10.75;;;;;20.14;72.32;101258.13;5071700;28;45438;-68
2023/09/13 08:25:39;;;;;;;;;20.00;16.50;;;;;20.16;72.29;101257.06;5062423;28;57090;-68
2023/09/13 08:28:05;;;;;;;;;16.25;14.25;;;;;20.25;72.30;101259.16;5068140;28;45714;-69
2023/09/13 08:30:30;;;;;;;;;15.75;12.25;;;;;20.31;72.20;101257.97;5068394;28;45268;-69
2023/09/13 08:32:55;;;;;;;;;16.00;13.50;;;;;20.38;71.51;101264.63;5067200;28;45528;-67
2023/09/13 08:35:21;;;;;;;;;16.25;13.00;;;;;20.41;71.31;101271.56;5060035;27;72811;-69
2023/09/13 08:37:47;;;;;;;;;20.75;13.25;;;;;20.44;71.11;101274.03;5070381;28;70868;-68
2023/09/13 08:40:13;;;;;;;;;15.00;10.75;;;;;20.43;70.97;101282.94;5071270;27;45599;-69
2023/09/13 08:42:43;;;;;;;;;21.00;15.25;;;;;20.42;71.36;101290.09;5059801;28;45576;-69
2023/09/13 08:45:09;;;;;;;;;19.25;15.00;;;;;20.46;70.64;101294.25;5064620;28;66437;-67
2023/09/13 08:47:38;;;;;;;;;19.25;15.75;;;;;20.46;70.26;101296.06;5074240;28;45591;-66
2023/09/13 08:50:05;;;;;;;;;17.25;16.25;;;;;20.45;70.79;101294.34;5092965;27;45347;-66
2023/09/13 08:52:31;;;;;;;;;16.75;13.50;;;;;20.48;70.89;101305.66;5069780;28;45412;-66
2023/09/13 08:54:57;;;;;;;;;16.00;14.50;;;;;20.56;70.73;101307.03;5064860;28;45454;-66
2023/09/13 08:57:24;;;;;;;;;18.25;14.25;;;;;20.69;70.59;101304.50;5067516;28;45685;-67
2023/09/13 08:59:50;;;;;;;;;17.75;15.75;;;;;20.87;70.55;101300.72;5066237;27;45465;-67
2023/09/13 09:02:18;;;;;;;;;16.75;13.25;;;;;21.03;70.10;101305.94;5067751;28;64911;-66
2023/09/13 09:04:45;;;;;;;;;14.00;11.00;;;;;21.17;69.44;101310.41;5071799;27;46637;-67
2023/09/13 09:07:10;;;;;;;;;15.00;13.75;;;;;21.25;68.87;101310.81;5073514;28;45884;-67
2023/09/13 09:09:36;;;;;;;;;15.25;14.00;;;;;21.29;68.56;101314.97;5071579;27;65781;-67
2023/09/13 09:12:02;;;;;;;;;14.50;13.50;;;;;21.27;68.68;101310.72;5070261;28;64770;-67
2023/09/13 09:14:32;;;;;;;;;20.75;14.25;;;;;21.24;68.30;101306.41;5067794;28;45835;-67
2023/09/13 09:16:59;;;;;;;;;17.50;11.75;;;;;21.23;68.43;101305.56;5066120;28;45481;-67
2023/09/13 09:19:24;;;;;;;;;51.25;41.25;;;;;21.26;68.59;101312.50;5065119;27;45491;-67
2023/09/13 09:21:51;;;;;;;;;25.25;20.25;;;;;21.24;68.07;101319.72;5072690;27;45734;-67
2023/09/13 09:24:16;;;;;;;;;17.00;15.50;;;;;21.21;68.25;101326.13;5068997;28;45555;-68
2023/09/13 09:26:44;;;;;;;;;17.25;17.00;;;;;21.19;68.24;101327.16;5068285;27;45398;-67
2023/09/13 09:29:14;;;;;;;;;16.00;14.00;;;;;21.15;68.32;101320.31;5066168;28;45586;-66
2023/09/13 09:31:40;;;;;;;;;15.00;14.25;;;;;21.19;68.44;101328.00;5071425;27;45523;-66
2023/09/13 09:34:05;;;;;;;;;17.50;16.50;;;;;21.24;68.40;101327.72;5071733;28;45328;-67
2023/09/13 09:36:36;;;;;;;;;23.50;18.25;;;;;21.33;68.50;101336.94;5053651;28;45539;-66
2023/09/13 09:39:03;;;;;;;;;20.75;15.75;;;;;21.45;67.96;101328.19;5059428;28;45637;-66
2023/09/13 09:41:33;;;;;;;;;17.50;14.25;;;;;21.55;68.00;101325.81;5078760;27;45438;-66
2023/09/13 09:43:58;;;;;;;;;18.00;13.75;;;;;21.63;67.56;101326.16;5066672;28;45505;-67
2023/09/13 09:46:23;;;;;;;;;20.75;16.00;;;;;21.70;67.71;101330.16;5075243;28;45409;-66
2023/09/13 09:48:51;;;;;;;;;19.00;16.00;;;;;21.75;67.43;101328.03;5065558;28;66143;-65
2023/09/13 09:51:16;;;;;;;;;16.25;12.75;;;;;21.80;66.89;101333.09;5072791;27;45923;-66
2023/09/13 09:53:42;;;;;;;;;19.75;16.00;;;;;21.84;66.51;101333.75;5072881;28;53447;-67
2023/09/13 09:56:07;;;;;;;;;18.00;14.50;;;;;21.84;66.31;101337.25;5074854;28;45671;-67
2023/09/13 09:58:33;;;;;;;;;15.25;14.50;;;;;21.88;66.00;101341.41;5075866;28;60678;-66
2023/09/13 10:01:00;;;;;;;;;18.25;13.00;;;;;21.92;66.41;101336.75;5070063;27;45522;-68
2023/09/13 10:03:34;;;;;;;;;15.50;12.25;;;;;21.93;66.18;101346.47;5072104;28;46284;-67
2023/09/13 10:06:03;;;;;;;;;13.25;12.75;;;;;22.00;65.87;101347.78;5072685;28;45511;-67
2023/09/13 10:08:45;;;;;;;;;19.75;13.75;;;;;21.99;65.12;101344.25;5068598;28;45456;-67
2023/09/13 10:11:13;;;;;;;;;15.50;11.25;;;;;22.04;65.41;101335.09;5070960;27;45469;-67
2023/09/13 10:13:40;;;;;;;;;18.00;17.00;;;;;22.10;65.40;101338.22;5073944;28;46072;-67
2023/09/13 10:16:09;;;;;;;;;17.00;13.50;;;;;22.16;64.90;101340.47;5056567;28;45197;-67
2023/09/13 10:18:44;;;;;;;;;21.75;14.00;;;;;22.28;65.30;101340.66;5068906;27;45437;-67
2023/09/13 10:21:10;;;;;;;;;17.75;16.25;;;;;22.40;64.55;101339.84;5073929;27;45458;-66
2023/09/13 10:23:44;;;;;;;;;15.25;12.00;;;;;22.55;64.88;101343.25;5073127;28;45937;-66
2023/09/13 10:26:11;;;;;;;;;18.25;15.00;;;;;22.65;64.42;101327.50;5073691;28;45621;-68
2023/09/13 10:28:39;;;;;;;;;18.50;12.00;;;;;22.84;64.15;101349.28;5070396;27;45375;-67
2023/09/13 10:31:15;;;;;;;;;20.25;14.25;;;;;22.91;63.91;101341.69;5080658;27;45426;-68
2023/09/13 10:33:44;;;;;;;;;8.75;8.75;;;;;22.94;64.02;101344.16;5073086;27;46459;-67
2023/09/13 10:36:16;;;;;;;;;16.25;14.75;;;;;22.93;63.08;101345.13;5076280;27;45869;-68
2023/09/13 10:39:15;;;;;;;;;16.75;12.00;;;;;22.89;63.14;101343.63;5072006;28;45407;-66
2023/09/13 10:41:47;;;;;;;;;13.25;11.50;;;;;22.86;62.32;101352.69;5061706;28;45342;-68
2023/09/13 10:44:13;;;;;;;;;13.25;10.25;;;;;22.89;61.99;101346.28;5052363;28;47234;-66
2023/09/13 10:46:39;;;;;;;;;11.75;11.00;;;;;22.95;62.49;101343.22;5073206;27;45292;-67
2023/09/13 10:49:05;;;;;;;;;18.00;13.50;;;;;23.00;62.35;101346.41;5073516;27;67807;-67
2023/09/13 10:51:31;;;;;;;;;14.00;12.75;;;;;23.01;62.30;101345.44;5077382;27;45537;-67
2023/09/13 10:53:58;;;;;;;;;24.75;18.00;;;;;23.01;61.93;101347.25;5081703;27;46149;-68
2023/09/13 10:56:23;;;;;;;;;26.50;23.75;;;;;23.02;61.85;101344.47;5080513;27;45806;-68
2023/09/13 10:58:49;;;;;;;;;15.25;13.75;;;;;23.05;61.46;101343.44;5075453;27;45347;-67
2023/09/13 11:01:15;;;;;;;;;20.00;13.25;;;;;23.07;62.12;101352.19;5079276;27;45455;-67
2023/09/13 11:03:41;;;;;;;;;25.75;23.50;;;;;23.05;61.66;101346.94;5071632;28;69297;-66
2023/09/13 11:06:07;;;;;;;;;12.75;11.50;;;;;23.08;61.29;101349.41;5054426;28;45371;-67